Time;durP1;ratioP1;P1;durP2;ratioP2;P2;SDS_P1;SDS_P2;PMS_P1;PMS_P2;Temp;Humidity;BMP_temperature;BMP_pressure;BME280_temperature;BME280_humidity;BME280_pressure;Samples;Min_cycle;Max_cycle;Signal;HPM_P1;HPM_P2
2022/09/22 00:01:17;;;;;;;2.25;0.60;;;;;;;18.19;72.02;101893.44;7389553;19;20018;-84
2022/09/22 00:03:48;;;;;;;2.90;2.05;;;;;;;18.19;71.97;101887.28;7390807;19;20393;-85
2022/09/22 00:06:17;;;;;;;3.47;0.80;;;;;;;18.16;72.63;101885.81;7389823;19;20022;-86
2022/09/22 00:11:20;;;;;;;1.83;0.80;;;;;;;18.15;72.57;101894.81;7392173;19;20074;-86
2022/09/22 00:13:52;;;;;;;4.28;1.00;;;;;;;18.13;72.37;101886.19;7386423;19;20018;-85
2022/09/22 00:16:22;;;;;;;2.40;0.80;;;;;;;18.14;72.24;101889.66;7385798;19;20022;-84
2022/09/22 00:18:50;;;;;;;3.53;0.98;;;;;;;18.15;73.07;101888.66;7391506;19;20603;-85
2022/09/22 00:21:19;;;;;;;3.92;1.10;;;;;;;18.17;73.19;101895.47;7392057;19;20082;-86
2022/09/22 00:23:48;;;;;;;3.97;1.05;;;;;;;18.16;72.63;101891.13;7392580;19;20362;-86
2022/09/22 00:26:18;;;;;;;2.67;0.95;;;;;;;18.16;72.64;101888.47;7389104;19;20014;-85
2022/09/22 00:28:46;;;;;;;4.00;1.00;;;;;;;18.15;72.92;101881.50;7392321;19;20010;-84
2022/09/22 00:31:17;;;;;;;2.65;1.50;;;;;;;18.13;72.71;101882.69;7388981;19;20015;-85
2022/09/22 00:33:45;;;;;;;2.70;0.95;;;;;;;18.12;73.24;101875.69;7390174;19;20501;-86
2022/09/22 00:36:14;;;;;;;1.70;0.90;;;;;;;18.13;72.94;101882.69;7389018;19;20014;-85
2022/09/22 00:38:42;;;;;;;2.40;1.23;;;;;;;18.11;72.66;101880.19;7389561;19;20006;-84
2022/09/22 00:41:16;;;;;;;2.35;0.93;;;;;;;18.09;72.80;101879.53;7385583;19;20013;-87
2022/09/22 00:43:47;;;;;;;2.65;0.93;;;;;;;18.05;73.14;101880.03;7391483;19;20018;-87
2022/09/22 00:46:21;;;;;;;3.03;1.42;;;;;;;18.02;73.83;101873.25;7387700;19;20370;-84
2022/09/22 00:48:56;;;;;;;3.65;1.00;;;;;;;18.02;73.86;101873.25;7389609;19;20094;-85
2022/09/22 00:51:26;;;;;;;2.85;1.00;;;;;;;17.99;73.83;101868.25;7388005;19;20332;-86
2022/09/22 00:53:56;;;;;;;2.25;1.02;;;;;;;17.97;73.73;101867.63;7388137;19;20050;-84
2022/09/22 00:56:29;;;;;;;2.22;1.08;;;;;;;17.94;73.78;101866.13;7386468;19;20098;-86
2022/09/22 00:59:02;;;;;;;3.38;1.05;;;;;;;17.93;74.02;101869.78;7388742;19;20016;-84
2022/09/22 01:01:39;;;;;;;2.50;1.15;;;;;;;17.90;74.17;101867.47;7383890;19;20014;-84
2022/09/22 01:04:07;;;;;;;3.25;1.33;;;;;;;17.87;73.89;101870.50;7390716;19;20039;-85
2022/09/22 01:06:38;;;;;;;4.85;1.40;;;;;;;17.82;74.08;101864.88;7392093;19;20118;-86
2022/09/22 01:09:09;;;;;;;2.13;1.00;;;;;;;17.78;73.99;101855.56;7386594;19;20048;-85
2022/09/22 01:11:38;;;;;;;4.05;1.40;;;;;;;17.74;74.88;101859.56;7385809;19;20018;-86
2022/09/22 01:14:22;;;;;;;2.90;1.50;;;;;;;17.72;74.72;101850.94;7388205;19;20426;-85
2022/09/22 01:17:08;;;;;;;3.65;1.27;;;;;;;17.68;74.74;101849.63;7384840;19;20109;-84
2022/09/22 01:19:54;;;;;;;3.10;1.65;;;;;;;17.66;75.73;101846.31;7389066;19;20006;-84
2022/09/22 01:22:35;;;;;;;3.97;1.38;;;;;;;17.65;74.83;101847.31;7391468;19;20017;-85
2022/09/22 01:25:13;;;;;;;4.32;1.40;;;;;;;17.63;75.19;101846.66;7388792;19;20047;-86
2022/09/22 01:27:59;;;;;;;4.40;1.63;;;;;;;17.61;75.33;101846.00;7390287;19;20090;-85
2022/09/22 01:30:34;;;;;;;3.60;1.67;;;;;;;17.59;75.31;101836.50;7386972;19;20495;-85
2022/09/22 01:33:12;;;;;;;4.82;1.90;;;;;;;17.56;75.74;101842.16;7387951;19;20378;-85
2022/09/22 01:35:59;;;;;;;4.47;2.20;;;;;;;17.51;75.97;101832.06;7388077;19;20133;-85
2022/09/22 01:38:45;;;;;;;5.53;2.53;;;;;;;17.46;75.83;101832.56;7391218;19;20010;-85
2022/09/22 01:41:18;;;;;;;4.50;2.35;;;;;;;17.41;76.13;101829.59;7370045;19;20628;-84
2022/09/22 01:43:50;;;;;;;;;;;;;;;17.39;76.22;101830.75;7382150;19;20395;-85
2022/09/22 01:46:25;;;;;;;5.45;2.30;;;;;;;17.33;76.62;101826.13;7370133;19;19926;-86
2022/09/22 01:48:56;;;;;;;4.72;2.53;;;;;;;17.28;77.41;101820.50;7385920;19;20554;-84
2022/09/22 01:51:29;;;;;;;5.78;2.85;;;;;;;17.27;77.29;101818.84;7388719;19;20011;-84
2022/09/22 01:54:04;;;;;;;5.85;2.92;;;;;;;17.25;77.29;101821.69;7386038;19;20030;-84
2022/09/22 01:56:33;;;;;;;7.75;2.80;;;;;;;17.22;77.83;101813.22;7369623;19;20030;-83
2022/09/22 01:59:04;;;;;;;5.82;3.00;;;;;;;17.21;78.03;101814.22;7384051;19;20106;-84
2022/09/22 02:01:41;;;;;;;9.95;3.30;;;;;;;17.15;78.28;101818.38;7390558;19;20106;-85
2022/09/22 02:04:13;;;;;;;7.70;3.63;;;;;;;17.11;78.24;101814.41;7385907;19;20044;-86
2022/09/22 02:06:53;;;;;;;6.68;3.42;;;;;;;17.09;78.88;101821.72;7366463;19;20354;-84
2022/09/22 02:09:25;;;;;;;5.55;3.33;;;;;;;17.08;78.93;101814.72;7387649;19;20509;-85
2022/09/22 02:11:52;;;;;;;11.45;3.63;;;;;;;17.07;78.90;101819.22;7386621;19;20014;-85
2022/09/22 02:14:20;;;;;;;4.63;2.90;;;;;;;17.06;78.70;101808.78;7387941;19;20182;-86
2022/09/22 02:16:51;;;;;;;6.03;3.38;;;;;;;17.06;78.82;101812.28;7370774;19;20321;-85
2022/09/22 02:19:31;;;;;;;8.10;3.50;;;;;;;17.05;78.88;101809.78;7384988;19;20015;-85
2022/09/22 02:21:59;;;;;;;6.18;3.58;;;;;;;17.04;79.06;101813.41;7388049;19;20066;-84
2022/09/22 02:24:36;;;;;;;8.07;3.38;;;;;;;17.05;78.98;101812.44;7388007;19;20018;-84
2022/09/22 02:27:08;;;;;;;6.15;3.50;;;;;;;17.04;79.02;101808.09;7370704;19;20007;-84
2022/09/22 02:29:39;;;;;;;7.13;3.58;;;;;;;17.00;79.01;101809.44;7389233;19;20014;-84
2022/09/22 02:32:10;;;;;;;5.68;3.25;;;;;;;16.95;78.71;101806.47;7387023;19;20508;-84
2022/09/22 02:34:37;;;;;;;7.32;4.30;;;;;;;16.91;79.28;101802.50;7388115;19;20010;-85
2022/09/22 02:37:19;;;;;;;6.93;3.88;;;;;;;16.90;79.27;101803.50;7387974;19;20011;-85
2022/09/22 02:40:06;;;;;;;8.05;3.83;;;;;;;16.86;79.18;101796.88;7387668;19;20039;-85
2022/09/22 02:42:43;;;;;;;6.90;4.32;;;;;;;16.83;79.46;101797.19;7383554;19;20011;-86
2022/09/22 02:45:21;;;;;;;8.57;4.88;;;;;;;16.78;79.59;101791.53;7386770;19;20085;-85
2022/09/22 02:47:55;;;;;;;7.10;4.25;;;;;;;16.77;79.58;101793.38;7385494;19;20369;-84
2022/09/22 02:50:26;;;;;;;8.20;4.45;;;;;;;16.75;79.65;101789.25;7389884;19;20019;-86
2022/09/22 02:53:01;;;;;;;7.78;4.55;;;;;;;16.74;79.78;101793.72;7385596;19;20044;-85
2022/09/22 02:55:28;;;;;;;9.70;4.53;;;;;;;16.73;79.77;101788.56;7386183;19;20010;-86
2022/09/22 02:57:54;;;;;;;10.85;4.93;;;;;;;16.70;79.87;101784.44;7383315;19;20006;-85
2022/09/22 03:00:21;;;;;;;8.32;4.03;;;;;;;16.66;79.94;101789.22;7384936;19;20575;-84
2022/09/22 03:02:48;;;;;;;9.00;4.50;;;;;;;16.65;80.40;101787.59;7385058;19;20010;-85
2022/09/22 03:05:15;;;;;;;8.55;5.00;;;;;;;16.63;80.34;101794.91;7384997;19;20019;-86
2022/09/22 03:07:42;;;;;;;9.38;5.03;;;;;;;16.64;80.96;101787.75;7383492;19;20006;-84
2022/09/22 03:10:09;;;;;;;8.95;5.10;;;;;;;16.65;80.75;101779.63;7384406;19;20109;-86
2022/09/22 03:12:41;;;;;;;10.00;5.25;;;;;;;16.65;80.42;101778.78;7383431;19;20010;-84
2022/09/22 03:15:29;;;;;;;12.23;4.88;;;;;;;16.63;80.14;101778.94;7386617;19;20028;-85
2022/09/22 03:17:56;;;;;;;10.30;5.18;;;;;;;16.59;80.30;101772.31;7381631;19;20491;-84
2022/09/22 03:20:23;;;;;;;8.10;5.10;;;;;;;16.56;80.38;101769.94;7385792;19;20026;-85
2022/09/22 03:22:50;;;;;;;10.63;6.47;;;;;;;16.55;81.18;101770.97;7385492;19;20046;-87
2022/09/22 03:25:17;;;;;;;10.02;5.70;;;;;;;16.56;82.04;101767.28;7384255;19;20108;-84
2022/09/22 03:27:44;;;;;;;9.85;5.22;;;;;;;16.56;81.23;101761.97;7380094;19;20011;-84
2022/09/22 03:30:12;;;;;;;9.93;5.20;;;;;;;16.55;80.78;101770.97;7385522;19;20015;-84
2022/09/22 03:32:39;;;;;;;10.82;5.88;;;;;;;16.52;80.67;101767.81;7382228;19;20051;-85
2022/09/22 03:35:07;;;;;;;8.07;5.57;;;;;;;16.50;80.81;101762.69;7382189;19;20329;-85
2022/09/22 03:37:34;;;;;;;9.02;5.82;;;;;;;16.47;80.94;101757.69;7382196;19;20387;-85
2022/09/22 03:40:03;;;;;;;12.68;6.60;;;;;;;16.47;81.67;101749.72;7385009;19;20007;-85
2022/09/22 03:42:31;;;;;;;11.27;5.90;;;;;;;16.45;81.16;101753.56;7381553;19;20011;-86
2022/09/22 03:44:59;;;;;;;11.32;5.93;;;;;;;16.42;81.01;101751.22;7385507;19;20032;-85
2022/09/22 03:47:25;;;;;;;12.93;6.40;;;;;;;16.38;81.37;101744.59;7380931;19;20022;-86
2022/09/22 03:49:53;;;;;;;10.18;5.95;;;;;;;16.36;81.06;101742.09;7387795;19;20018;-86
2022/09/22 03:52:20;;;;;;;8.60;5.80;;;;;;;16.33;81.16;101742.44;7385516;19;20017;-85
2022/09/22 03:54:47;;;;;;;10.77;6.07;;;;;;;16.33;81.89;101738.94;7386710;19;20049;-86
2022/09/22 03:57:14;;;;;;;11.52;6.85;;;;;;;16.33;82.22;101742.44;7381831;19;20127;-85
2022/09/22 03:59:41;;;;;;;12.95;6.25;;;;;;;16.31;81.71;101738.28;7385036;19;20028;-85
2022/09/22 04:02:09;;;;;;;11.20;5.97;;;;;;;16.30;81.90;101726.84;7385189;19;20582;-85
2022/09/22 04:04:36;;;;;;;10.27;6.47;;;;;;;16.29;81.85;101729.66;7384502;19;20017;-85
2022/09/22 04:07:03;;;;;;;11.60;6.40;;;;;;;16.24;82.05;101733.66;7384972;19;20006;-85
2022/09/22 04:09:33;;;;;;;11.25;6.60;;;;;;;16.22;82.13;101732.16;7383903;19;20091;-84
2022/09/22 04:12:00;;;;;;;11.15;7.32;;;;;;;16.19;82.38;101735.16;7380940;19;20014;-85
2022/09/22 04:14:27;;;;;;;12.55;7.05;;;;;;;16.14;82.52;101725.03;7384496;19;20019;-86
2022/09/22 04:16:55;;;;;;;14.50;7.18;;;;;;;16.12;82.80;101728.84;7385035;19;20122;-85
2022/09/22 04:21:49;;;;;;;16.10;7.43;;;;;;;16.10;83.32;101726.34;7385541;19;20040;-85
2022/09/22 04:24:15;;;;;;;13.45;7.45;;;;;;;16.12;83.39;101726.16;7383860;19;20041;-86
2022/09/22 04:26:42;;;;;;;11.77;7.45;;;;;;;16.12;83.32;101724.34;7383990;19;20378;-86
2022/09/22 04:29:29;;;;;;;15.75;8.02;;;;;;;16.13;83.34;101717.22;7386632;19;20007;-85
2022/09/22 04:31:56;;;;;;;14.35;6.63;;;;;;;16.11;83.22;101713.88;7390800;19;20039;-85
2022/09/22 04:34:23;;;;;;;13.55;7.30;;;;;;;16.11;83.41;101717.38;7391726;19;20014;-85
2022/09/22 04:36:50;;;;;;;13.43;7.63;;;;;;;16.10;83.30;101713.06;7389426;19;20044;-84
2022/09/22 04:39:17;;;;;;;11.43;7.20;;;;;;;16.07;83.48;101702.78;7392460;19;20010;-84
2022/09/22 04:41:49;;;;;;;11.77;7.33;;;;;;;16.08;83.57;101709.75;7388287;19;20031;-84
2022/09/22 04:44:16;;;;;;;13.45;7.93;;;;;;;16.07;83.61;101704.59;7392213;19;20011;-86
2022/09/22 04:46:45;;;;;;;13.10;7.50;;;;;;;16.09;83.99;101707.94;7390260;19;20014;-84
2022/09/22 04:49:12;;;;;;;12.75;7.82;;;;;;;16.10;83.68;101709.59;7385993;19;20022;-85
2022/09/22 04:51:39;;;;;;;12.30;7.38;;;;;;;16.10;83.33;101698.97;7388908;19;20036;-85
2022/09/22 04:54:07;;;;;;;12.20;7.35;;;;;;;16.04;83.47;101697.81;7389980;19;20011;-86
2022/09/22 04:56:34;;;;;;;13.93;8.05;;;;;;;16.00;83.61;101690.34;7386515;19;20513;-86
2022/09/22 04:59:00;;;;;;;13.02;8.07;;;;;;;15.96;83.95;101689.00;7387272;19;20006;-85
2022/09/22 05:01:28;;;;;;;13.15;7.88;;;;;;;15.96;84.25;101694.31;7386810;19;20021;-84
2022/09/22 05:03:55;;;;;;;16.08;8.75;;;;;;;15.98;84.32;101689.69;7389351;19;20399;-85
2022/09/22 05:08:49;;;;;;;17.23;8.20;;;;;;;15.96;84.33;101694.31;7392725;19;20422;-85
2022/09/22 05:11:18;;;;;;;14.65;8.85;;;;;;;15.96;84.21;101689.84;7387268;19;20401;-85
2022/09/22 05:13:45;;;;;;;17.30;8.98;;;;;;;15.96;84.04;101696.97;7392742;19;20559;-85
2022/09/22 05:16:12;;;;;;;17.42;8.70;;;;;;;15.95;84.13;101688.16;7389878;19;20452;-84
2022/09/22 05:18:39;;;;;;;15.70;9.60;;;;;;;15.97;84.40;101690.66;7391868;19;20021;-87
2022/09/22 05:21:06;;;;;;;18.13;9.50;;;;;;;15.97;84.09;101695.97;7390902;19;20005;-85
2022/09/22 05:23:33;;;;;;;16.70;9.43;;;;;;;15.96;83.70;101697.81;7391641;19;20030;-84
2022/09/22 05:26:00;;;;;;;17.25;9.05;;;;;;;15.96;83.85;101691.66;7390612;19;20455;-85
2022/09/22 05:28:28;;;;;;;15.98;9.13;;;;;;;15.94;83.94;101688.34;7390126;19;20019;-84
2022/09/22 05:30:55;;;;;;;16.52;10.05;;;;;;;15.95;83.98;101690.81;7386336;19;20014;-85
2022/09/22 05:33:25;;;;;;;20.02;10.02;;;;;;;15.96;84.46;101695.16;7388471;19;20018;-85
2022/09/22 05:35:54;;;;;;;15.00;9.23;;;;;;;15.98;84.53;101689.69;7389237;19;20015;-85
2022/09/22 05:38:21;;;;;;;16.77;9.23;;;;;;;15.94;84.18;101689.19;7389737;19;20022;-84
2022/09/22 05:40:48;;;;;;;13.40;8.63;;;;;;;15.94;84.50;101699.81;7390269;19;20006;-85
2022/09/22 05:43:15;;;;;;;16.35;9.00;;;;;;;15.94;84.51;101701.63;7383954;19;20022;-86
2022/09/22 05:45:43;;;;;;;15.82;9.15;;;;;;;15.94;84.49;101701.63;7390175;19;20496;-84
2022/09/22 05:48:10;;;;;;;16.92;9.50;;;;;;;15.91;84.76;101702.78;7386967;19;20472;-84
2022/09/22 05:50:38;;;;;;;17.42;9.07;;;;;;;15.93;84.93;101705.28;7390792;19;20538;-85
2022/09/22 05:53:08;;;;;;;14.13;8.85;;;;;;;15.93;84.74;101705.28;7386842;19;20015;-84
2022/09/22 05:55:37;;;;;;;15.77;8.95;;;;;;;15.94;84.96;101715.75;7387329;19;20014;-84
2022/09/22 05:58:04;;;;;;;16.58;9.32;;;;;;;15.93;84.67;101706.09;7384605;19;20045;-85
2022/09/22 06:00:32;;;;;;;14.65;8.73;;;;;;;15.92;84.54;101715.06;7390035;19;20011;-84
2022/09/22 06:02:59;;;;;;;14.13;8.18;;;;;;;15.92;84.69;101711.56;7387456;19;20044;-84
2022/09/22 06:05:26;;;;;;;15.98;8.90;;;;;;;15.92;84.94;101706.25;7389600;19;20082;-84
2022/09/22 06:07:58;;;;;;;14.48;9.05;;;;;;;15.93;84.85;101706.09;7388841;19;20011;-85
2022/09/22 06:10:26;;;;;;;14.07;8.00;;;;;;;15.92;84.78;101704.44;7389203;19;20512;-85
2022/09/22 06:13:00;;;;;;;15.15;8.93;;;;;;;15.93;84.62;101702.63;7387271;19;20041;-86
2022/09/22 06:15:28;;;;;;;15.98;8.90;;;;;;;15.91;84.78;101704.59;7388559;19;20029;-85
2022/09/22 06:17:55;;;;;;;19.42;9.32;;;;;;;15.94;84.89;101706.94;7384626;19;20018;-85
2022/09/22 06:20:23;;;;;;;16.58;8.57;;;;;;;15.93;84.83;101714.06;7386646;19;20011;-84
2022/09/22 06:22:50;;;;;;;14.05;8.65;;;;;;;15.93;84.89;101713.25;7386741;19;20014;-85
2022/09/22 06:25:17;;;;;;;21.42;12.00;;;;;;;15.95;84.64;101714.72;7386865;19;20011;-84
2022/09/22 06:27:45;;;;;;;13.07;7.82;;;;;;;15.98;84.68;101706.44;7382933;19;20389;-84
2022/09/22 06:30:12;;;;;;;12.45;7.40;;;;;;;16.00;84.15;101711.59;7384694;19;20022;-82
2022/09/22 06:32:42;;;;;;;12.13;7.13;;;;;;;16.02;84.13;101705.09;7384096;19;20030;-86
2022/09/22 06:35:19;;;;;;;11.93;7.30;;;;;;;16.05;84.16;101704.75;7386377;19;20014;-84
2022/09/22 06:37:50;;;;;;;11.98;7.57;;;;;;;16.08;83.94;101708.91;7385511;19;20015;-83
2022/09/22 06:40:17;;;;;;;12.45;6.82;;;;;;;16.10;83.70;101705.09;7385668;19;20010;-85
2022/09/22 06:42:45;;;;;;;10.00;6.65;;;;;;;16.13;83.67;101695.97;7385070;19;20388;-84
2022/09/22 06:45:13;;;;;;;11.15;6.70;;;;;;;16.16;83.41;101708.91;7383799;19;20390;-83
2022/09/22 06:47:41;;;;;;;10.38;6.35;;;;;;;16.20;83.33;101700.44;7384350;19;20026;-83
2022/09/22 06:50:09;;;;;;;13.52;6.68;;;;;;;16.24;83.53;101701.78;7385331;19;20374;-82
2022/09/22 06:52:36;;;;;;;12.10;7.05;;;;;;;16.26;83.35;101699.75;7382469;19;20077;-84
2022/09/22 06:55:05;;;;;;;12.38;6.65;;;;;;;16.31;83.19;101703.75;7383253;19;20022;-84
2022/09/22 06:57:32;;;;;;;12.18;7.30;;;;;;;16.31;83.03;101701.09;7385331;19;20014;-84
2022/09/22 07:00:00;;;;;;;13.73;7.13;;;;;;;16.33;82.92;101701.75;7384579;19;20022;-86
2022/09/22 07:02:28;;;;;;;12.68;6.53;;;;;;;16.36;82.75;101704.06;7386321;19;20027;-85
2022/09/22 07:04:57;;;;;;;9.82;6.15;;;;;;;16.38;82.02;101704.72;7391194;19;20006;-84
2022/09/22 07:07:27;;;;;;;9.93;5.82;;;;;;;16.42;81.55;101700.72;7384771;19;20021;-84
2022/09/22 07:09:54;;;;;;;10.80;5.60;;;;;;;16.44;80.94;101699.59;7384885;19;20014;-86
2022/09/22 07:12:21;;;;;;;10.55;5.55;;;;;;;16.46;80.98;101705.53;7383889;19;20014;-86
2022/09/22 07:14:50;;;;;;;9.07;5.22;;;;;;;16.49;80.78;101696.41;7387681;19;20488;-85
2022/09/22 07:17:17;;;;;;;9.45;5.20;;;;;;;16.51;81.52;101692.56;7387095;19;20031;-87
2022/09/22 07:19:45;;;;;;;10.13;5.43;;;;;;;16.55;80.93;101696.56;7388230;19;20107;-87
2022/09/22 07:22:17;;;;;;;10.70;4.82;;;;;;;16.57;80.73;101697.22;7387330;19;20022;-85
2022/09/22 07:24:45;;;;;;;10.77;4.90;;;;;;;16.58;80.62;101700.69;7389860;19;20086;-87
2022/09/22 07:27:13;;;;;;;9.38;5.10;;;;;;;16.59;80.52;101695.25;7388159;19;20034;-88
2022/09/22 07:29:41;;;;;;;11.60;5.53;;;;;;;16.61;80.76;101695.06;7388223;19;20018;-87
2022/09/22 07:32:09;;;;;;;8.82;5.15;;;;;;;16.64;80.70;101692.09;7388639;19;20463;-87
2022/09/22 07:34:37;;;;;;;10.00;6.65;;;;;;;16.65;80.76;101701.72;7391361;19;20348;-87
2022/09/22 07:37:04;;;;;;;9.10;5.22;;;;;;;16.65;80.79;101694.59;7390840;19;20015;-88
2022/09/22 07:39:31;;;;;;;11.90;6.22;;;;;;;16.70;80.40;101688.75;7391378;19;20014;-87
2022/09/22 07:41:56;;;;;;;11.75;5.32;;;;;;;16.72;80.74;101686.72;7388990;19;20029;-87
2022/09/22 07:47:02;;;;;;;11.82;4.95;;;;;;;16.79;80.67;101685.06;7391809;19;20086;-87
2022/09/22 07:49:29;;;;;;;6.90;3.88;;;;;;;16.85;81.21;101683.53;7389028;19;20015;-85
2022/09/22 07:51:56;;;;;;;8.38;5.15;;;;;;;16.86;80.18;101683.38;7389216;19;20498;-86
2022/09/22 07:54:25;;;;;;;8.93;3.65;;;;;;;16.87;78.46;101685.00;7389285;19;20105;-87
2022/09/22 07:56:57;;;;;;;8.15;3.30;;;;;;;16.92;79.08;101681.84;7384488;19;20006;-86
2022/09/22 07:59:24;;;;;;;7.53;2.95;;;;;;;16.99;79.06;101685.47;7388328;19;20384;-88
2022/09/22 08:01:51;;;;;;;7.38;4.18;;;;;;;16.99;78.10;101683.63;7388250;19;20015;-86
2022/09/22 08:04:21;;;;;;;7.50;3.53;;;;;;;17.05;79.43;101687.44;7390739;19;20082;-88
2022/09/22 08:06:54;;;;;;;14.10;8.93;;;;;;;17.07;78.86;101691.56;7398669;19;20010;-85
2022/09/22 08:09:22;;;;;;;8.27;5.90;;;;;;;17.11;79.14;101673.44;7393462;19;20026;-86
2022/09/22 08:11:48;;;;;;;8.13;4.25;;;;;;;17.18;78.21;101674.38;7394449;19;20337;-87
2022/09/22 08:14:29;;;;;;;6.82;4.20;;;;;;;17.29;76.88;101681.97;7394983;19;20551;-87
2022/09/22 08:16:56;;;;;;;8.98;5.55;;;;;;;17.31;75.97;101672.00;7394162;19;20022;-87
2022/09/22 08:19:24;;;;;;;7.43;3.78;;;;;;;17.34;75.98;101668.97;7397442;19;20060;-87
2022/09/22 08:21:53;;;;;;;10.00;5.60;;;;;;;17.36;75.68;101669.63;7396371;19;20011;-88
2022/09/22 08:24:21;;;;;;;15.18;10.57;;;;;;;17.41;77.48;101661.97;7395271;19;20043;-88
2022/09/22 08:26:51;;;;;;;8.23;6.60;;;;;;;17.43;76.34;101664.41;7390710;19;20033;-87
2022/09/22 08:29:19;;;;;;;7.70;4.22;;;;;;;17.45;76.66;101655.28;7395566;19;20045;-88
2022/09/22 08:31:52;;;;;;;10.68;3.92;;;;;;;17.48;76.55;101657.56;7394471;19;20029;-86
2022/09/22 08:34:21;;;;;;;8.55;3.67;;;;;;;17.52;75.85;101660.72;7396849;19;20010;-90
2022/09/22 08:36:49;;;;;;;7.93;3.47;;;;;;;17.54;75.34;101658.69;7395118;19;20036;-87
2022/09/22 08:39:16;;;;;;;8.32;4.75;;;;;;;17.59;75.59;101663.47;7391856;19;20010;-88
2022/09/22 08:41:54;;;;;;;9.02;4.15;;;;;;;17.63;75.89;101662.97;7393669;19;20014;-86
2022/09/22 08:44:27;;;;;;;11.73;4.40;;;;;;;17.65;75.65;101660.97;7393362;19;20082;-87
2022/09/22 08:46:58;;;;;;;10.63;6.07;;;;;;;17.67;75.11;101663.47;7395068;19;20480;-86
2022/09/22 08:51:59;;;;;;;9.25;5.47;;;;;;;17.75;76.91;101668.72;7392921;19;20021;-86
2022/09/22 08:54:30;;;;;;;6.90;3.97;;;;;;;17.75;76.57;101660.72;7396313;19;20339;-87
2022/09/22 08:57:06;;;;;;;8.80;5.15;;;;;;;17.77;75.68;101659.56;7393054;19;20006;-88
2022/09/22 08:59:41;;;;;;;8.75;3.40;;;;;;;17.82;75.10;101654.53;7393660;19;20027;-86
2022/09/22 09:02:12;;;;;;;11.00;3.97;;;;;;;17.89;75.34;101654.59;7397392;19;20041;-86
2022/09/22 09:04:45;;;;;;;9.13;3.10;;;;;;;17.93;74.89;101654.06;7393915;19;20007;-85
2022/09/22 09:07:19;;;;;;;;;;;;;;;17.99;75.77;101657.84;7393599;19;20010;-84
2022/09/22 09:09:57;;;;;;;9.50;3.80;;;;;;;18.01;74.96;101653.19;7365678;19;19930;-87
2022/09/22 09:12:30;;;;;;;7.28;2.85;;;;;;;18.05;74.09;101657.13;7386438;19;20388;-84
2022/09/22 09:15:05;;;;;;;6.35;2.38;;;;;;;18.11;73.71;101652.91;7392144;19;20039;-87
2022/09/22 09:17:37;;;;;;;4.70;2.20;;;;;;;18.17;73.69;101649.53;7392132;19;20082;-85
2022/09/22 09:20:09;;;;;;;6.22;2.22;;;;;;;18.21;72.55;101651.66;7383834;19;20022;-87
2022/09/22 09:22:40;;;;;;;4.03;2.40;;;;;;;18.25;71.79;101657.44;7393767;19;20026;-86
2022/09/22 09:25:21;;;;;;;5.03;2.47;;;;;;;18.30;73.55;101663.88;7391591;19;20034;-87
2022/09/22 09:27:55;;;;;;;5.85;3.40;;;;;;;18.28;72.98;101657.91;7378141;19;20018;-87
2022/09/22 09:30:23;;;;;;;9.27;2.90;;;;;;;18.33;72.92;101657.34;7393934;19;20013;-86
2022/09/22 09:32:53;;;;;;;3.17;1.17;;;;;;;18.37;72.28;101651.47;7390224;19;20018;-86
2022/09/22 09:35:34;;;;;;;3.72;1.75;;;;;;;18.42;71.99;101653.59;7389296;19;20082;-88
2022/09/22 09:40:37;;;;;;;5.93;1.45;;;;;;;18.50;71.42;101642.00;7390215;19;20018;-86
2022/09/22 09:43:06;;;;;;;8.85;1.63;;;;;;;18.54;71.18;101644.13;7387701;19;20007;-86
2022/09/22 09:45:50;;;;;;;5.15;1.67;;;;;;;18.59;70.61;101630.28;7390092;19;20035;-86
2022/09/22 09:48:28;;;;;;;3.70;1.23;;;;;;;18.62;70.25;101633.38;7392948;19;20010;-87
2022/09/22 09:51:00;;;;;;;3.75;1.27;;;;;;;18.64;69.71;101633.22;7394322;19;20018;-87
2022/09/22 09:53:33;;;;;;;2.50;0.93;;;;;;;18.65;69.71;101633.00;7391248;19;20491;-87
2022/09/22 09:56:13;;;;;;;3.38;1.00;;;;;;;18.68;70.17;101623.81;7392043;19;20015;-86
2022/09/22 10:03:53;;;;;;;3.83;1.42;;;;;;;18.73;67.93;101622.25;7389388;19;20018;-87
2022/09/22 10:06:25;;;;;;;4.10;0.90;;;;;;;18.78;68.10;101611.84;7387605;19;20439;-89
2022/09/22 10:08:51;;;;;;;2.13;0.90;;;;;;;18.83;66.91;101615.78;7384629;19;20010;-87
2022/09/22 10:11:26;;;;;;;2.85;0.80;;;;;;;18.85;67.45;101609.25;7386284;19;20401;-88
2022/09/22 10:13:56;;;;;;;4.18;0.82;;;;;;;18.89;66.58;101607.03;7387942;19;20032;-85
2022/09/22 10:16:25;;;;;;;3.38;0.70;;;;;;;18.93;66.32;101611.81;7392008;19;20014;-87
2022/09/22 10:18:55;;;;;;;1.90;0.80;;;;;;;18.96;66.47;101611.44;7388532;19;20457;-88
2022/09/22 10:23:55;;;;;;;6.32;0.63;;;;;;;19.03;66.49;101601.66;7390950;19;20015;-86
2022/09/22 10:26:25;;;;;;;3.92;0.60;;;;;;;19.12;66.36;101594.34;7388116;19;20559;-88
2022/09/22 10:28:59;;;;;;;6.05;0.52;;;;;;;19.15;66.11;101596.63;7387619;19;20027;-87
2022/09/22 10:31:27;;;;;;;1.88;0.70;;;;;;;19.19;66.62;101600.59;7387532;19;20053;-86
2022/09/22 10:33:58;;;;;;;3.03;0.60;;;;;;;19.22;66.44;101598.38;7390291;19;20014;-86
2022/09/22 10:36:29;;;;;;;1.20;0.52;;;;;;;19.26;65.90;101590.81;7390823;19;20018;-86
2022/09/22 10:38:57;;;;;;;2.07;0.63;;;;;;;19.29;65.42;101593.09;7388201;19;20015;-86
2022/09/22 10:41:29;;;;;;;2.45;0.50;;;;;;;19.30;64.85;101586.72;7388958;19;20040;-87
2022/09/22 10:44:06;;;;;;;6.13;0.70;;;;;;;19.32;65.21;101582.03;7392045;19;20359;-87
2022/09/22 10:46:36;;;;;;;3.53;0.65;;;;;;;19.28;65.61;101591.44;7389752;19;20018;-88
2022/09/22 10:49:10;;;;;;;2.17;0.60;;;;;;;19.28;65.65;101579.94;7391754;19;20035;-85
2022/09/22 10:51:53;;;;;;;3.75;0.68;;;;;;;19.29;65.38;101584.28;7392179;19;20010;-86
2022/09/22 10:54:23;;;;;;;3.33;0.65;;;;;;;19.30;65.71;101588.59;7392292;19;20076;-86
2022/09/22 10:56:56;;;;;;;1.65;0.55;;;;;;;19.32;65.43;101590.03;7389614;19;20014;-87
2022/09/22 10:59:25;;;;;;;5.80;0.60;;;;;;;19.34;64.69;101577.34;7388748;19;20019;-89
2022/09/22 11:01:59;;;;;;;6.63;0.68;;;;;;;19.34;64.76;101581.84;7391941;19;20044;-87
2022/09/22 11:12:28;;;;;;;7.68;1.00;;;;;;;19.48;64.30;101564.97;7384411;19;20047;-86
2022/09/22 11:15:02;;;;;;;5.35;0.70;;;;;;;19.53;64.48;101566.03;7388951;19;20010;-85
2022/09/22 11:17:40;;;;;;;1.40;0.60;;;;;;;19.61;64.57;101562.38;7387690;19;20279;-87
2022/09/22 11:20:15;;;;;;;6.05;0.50;;;;;;;19.69;63.85;101561.44;7386267;19;20017;-87
2022/09/22 11:23:02;;;;;;;2.78;0.70;;;;;;;19.67;64.06;101564.28;7382179;19;20356;-88
2022/09/22 11:25:34;;;;;;;7.55;1.00;;;;;;;19.70;64.96;101566.59;7385284;19;20006;-88
2022/09/22 11:28:03;;;;;;;5.53;2.05;;;;;;;19.71;64.50;101560.19;7384308;19;20051;-88
2022/09/22 11:30:39;;;;;;;4.20;1.10;;;;;;;19.67;64.94;101550.09;7381800;19;20112;-87
2022/09/22 11:33:11;;;;;;;3.17;0.75;;;;;;;19.66;65.00;101549.28;7383775;19;20006;-87
2022/09/22 11:35:43;;;;;;;3.13;0.60;;;;;;;19.69;65.76;101538.22;7387483;19;20018;-87
2022/09/22 11:38:14;;;;;;;3.15;0.60;;;;;;;19.71;64.69;101546.03;7382518;19;20048;-88
2022/09/22 11:40:47;;;;;;;4.10;0.68;;;;;;;19.71;64.87;101536.16;7385587;19;20293;-86
2022/09/22 11:46:56;;;;;;;0.98;0.30;;;;;;;19.77;62.89;101527.38;7387347;19;20089;-88
2022/09/22 11:49:27;;;;;;;4.75;0.50;;;;;;;19.83;62.80;101523.91;7385023;19;20010;-88
2022/09/22 11:52:15;;;;;;;3.30;0.40;;;;;;;19.90;63.08;101526.66;7386413;19;20010;-81
2022/09/22 11:54:45;;;;;;;2.00;0.38;;;;;;;19.93;62.36;101519.06;7387022;19;20007;-88
2022/09/22 11:57:18;;;;;;;2.50;0.60;;;;;;;19.96;62.64;101517.84;7382785;19;20025;-87
2022/09/22 11:59:51;;;;;;;3.45;0.60;;;;;;;19.99;63.46;101517.44;7382541;19;20090;-88
2022/09/22 12:02:25;;;;;;;2.60;0.70;;;;;;;19.99;63.82;101512.09;7384825;19;20491;-86
2022/09/22 12:04:58;;;;;;;4.68;1.30;;;;;;;19.97;64.11;101509.63;7387381;19;20105;-88
2022/09/22 12:07:31;;;;;;;4.53;0.80;;;;;;;19.96;64.27;101509.84;7385471;19;20022;-88
2022/09/22 12:10:01;;;;;;;;;;;;;;;19.95;64.79;101501.00;7382709;19;20048;-80
2022/09/22 12:12:31;;;;;;;1.60;0.70;;;;;;;19.94;64.81;101499.34;7380092;19;19930;-87